Time;durP1;ratioP1;P1;durP2;ratioP2;P2;SDS_P1;SDS_P2;PMS_P1;PMS_P2;Temp;Humidity;BMP_temperature;BMP_pressure;BME280_temperature;BME280_humidity;BME280_pressure;Samples;Min_cycle;Max_cycle;Signal;HPM_P1;HPM_P2
2022/09/17 00:01:16;;;;;;;16.93;6.80;;;13.50;98.00;;;;;;5001063;28;20219;-59
2022/09/17 00:03:41;;;;;;;7.00;4.97;;;13.50;98.00;;;;;;5012540;28;20276;-59
2022/09/17 00:06:11;;;;;;;8.80;4.80;;;13.50;98.00;;;;;;4996276;28;20276;-59
2022/09/17 00:08:38;;;;;;;6.40;5.57;;;13.40;98.00;;;;;;4988557;28;20192;-59
2022/09/17 00:11:15;;;;;;;16.43;6.27;;;13.50;98.00;;;;;;5023376;28;20196;-59
2022/09/17 00:13:41;;;;;;;10.87;5.87;;;13.40;98.00;;;;;;5027784;28;20191;-59
2022/09/17 00:16:07;;;;;;;9.10;5.17;;;13.40;98.00;;;;;;5013632;28;20532;-59
2022/09/17 00:18:35;;;;;;;7.10;6.13;;;13.30;98.00;;;;;;4985541;28;20276;-59
2022/09/17 00:21:02;;;;;;;7.37;5.93;;;13.30;97.90;;;;;;4999968;28;20358;-59
2022/09/17 00:23:27;;;;;;;9.17;6.30;;;13.30;98.00;;;;;;5022344;28;20212;-59
2022/09/17 00:25:53;;;;;;;13.37;7.00;;;13.30;98.00;;;;;;5003033;28;20213;-59
2022/09/17 00:28:19;;;;;;;8.87;6.63;;;13.30;98.00;;;;;;4984125;28;20275;-59
2022/09/17 00:30:45;;;;;;;11.27;7.37;;;13.30;98.00;;;;;;5010860;28;20184;-59
2022/09/17 00:33:14;;;;;;;10.97;7.27;;;13.40;98.00;;;;;;5005853;28;20256;-59
2022/09/17 00:35:39;;;;;;;8.73;7.10;;;13.40;98.00;;;;;;5029117;28;20184;-59
2022/09/17 00:38:05;;;;;;;22.57;10.50;;;13.40;98.00;;;;;;4982235;28;20261;-60
2022/09/17 00:40:31;;;;;;;14.53;9.43;;;13.40;98.00;;;;;;4991730;28;20249;-59
2022/09/17 00:42:56;;;;;;;11.67;8.03;;;13.50;98.00;;;;;;4982850;28;20205;-59
2022/09/17 00:45:23;;;;;;;10.93;8.17;;;13.50;98.00;;;;;;5006936;28;20193;-59
2022/09/17 00:47:58;;;;;;;11.07;7.83;;;13.50;98.00;;;;;;4992995;28;20188;-59
2022/09/17 00:50:40;;;;;;;11.43;8.17;;;13.40;98.00;;;;;;5009320;28;20212;-59
2022/09/17 00:53:17;;;;;;;8.40;6.93;;;13.40;98.00;;;;;;4978586;28;20203;-59
2022/09/17 00:55:47;;;;;;;10.20;7.00;;;13.40;98.00;;;;;;5026026;28;20250;-59
2022/09/17 00:58:15;;;;;;;19.87;9.53;;;13.40;98.00;;;;;;5012851;28;20185;-59
2022/09/17 01:00:42;;;;;;;18.10;9.83;;;13.40;98.00;;;;;;5008628;28;20193;-59
2022/09/17 01:03:08;;;;;;;12.03;9.10;;;13.50;98.00;;;;;;5016463;28;20240;-59
2022/09/17 01:05:59;;;;;;;14.07;8.90;;;13.50;98.00;;;;;;5027319;28;20228;-59
2022/09/17 01:08:59;;;;;;;17.43;10.27;;;13.50;98.00;;;;;;5021749;28;20187;-59
2022/09/17 01:11:42;;;;;;;12.47;8.90;;;13.40;98.00;;;;;;5020371;28;20194;-59
2022/09/17 01:14:33;;;;;;;9.30;7.23;;;13.50;98.00;;;;;;5015058;28;20305;-59
2022/09/17 01:17:28;;;;;;;12.00;8.70;;;13.40;98.00;;;;;;5021804;28;20227;-59
2022/09/17 01:20:03;;;;;;;11.30;8.43;;;13.30;98.00;;;;;;5015993;28;20184;-59
2022/09/17 01:22:57;;;;;;;13.60;8.23;;;13.30;98.00;;;;;;5013633;28;20211;-59
2022/09/17 01:25:39;;;;;;;12.07;8.50;;;13.30;98.00;;;;;;5012040;28;20217;-59
2022/09/17 01:28:28;;;;;;;9.83;7.97;;;13.30;98.00;;;;;;4988037;28;20189;-60
2022/09/17 01:31:18;;;;;;;9.77;7.67;;;13.30;98.00;;;;;;5009443;28;20197;-59
2022/09/17 01:34:05;;;;;;;13.53;7.60;;;13.30;98.00;;;;;;5008650;28;20239;-59
2022/09/17 01:36:34;;;;;;;12.10;7.50;;;13.30;98.00;;;;;;5020363;28;20188;-59
2022/09/17 01:39:24;;;;;;;11.57;8.27;;;13.30;98.00;;;;;;5008804;28;20232;-59
2022/09/17 01:41:57;;;;;;;10.27;8.03;;;13.20;98.00;;;;;;5022254;28;20213;-59
2022/09/17 01:44:32;;;;;;;12.90;8.50;;;13.20;98.00;;;;;;5008668;28;20239;-59
2022/09/17 01:47:15;;;;;;;7.93;5.97;;;13.20;98.00;;;;;;5021145;28;20188;-59
2022/09/17 01:49:42;;;;;;;9.10;6.70;;;13.10;97.90;;;;;;5020608;28;20189;-59
2022/09/17 01:52:10;;;;;;;7.40;6.37;;;13.20;98.00;;;;;;5014313;28;20193;-59
2022/09/17 01:54:46;;;;;;;7.40;6.70;;;13.20;98.00;;;;;;5012729;28;20188;-59
2022/09/17 01:57:22;;;;;;;9.17;8.10;;;13.20;97.90;;;;;;5011425;28;20192;-59
2022/09/17 02:00:00;;;;;;;10.53;7.20;;;13.20;98.00;;;;;;4975188;28;20192;-59
2022/09/17 02:02:28;;;;;;;10.67;7.87;;;13.20;98.00;;;;;;4986892;28;20208;-59
2022/09/17 02:05:35;;;;;;;10.90;8.13;;;13.30;98.00;;;;;;4977833;28;20188;-59
2022/09/17 02:08:18;;;;;;;11.93;8.07;;;13.30;98.00;;;;;;4994234;28;20207;-59
2022/09/17 02:10:51;;;;;;;10.50;7.90;;;13.30;98.00;;;;;;5017541;28;20275;-59
2022/09/17 02:13:51;;;;;;;10.47;8.47;;;13.30;98.00;;;;;;5021000;28;20243;-59
2022/09/17 02:16:28;;;;;;;8.83;7.53;;;13.30;98.00;;;;;;4990044;28;20219;-59
2022/09/17 02:18:59;;;;;;;9.67;7.20;;;13.30;98.00;;;;;;5007962;28;20185;-59
2022/09/17 02:21:45;;;;;;;8.03;7.13;;;13.30;98.00;;;;;;5012595;28;20216;-59
2022/09/17 02:24:17;;;;;;;12.10;8.60;;;13.30;98.00;;;;;;5016339;28;20193;-59
2022/09/17 02:27:10;;;;;;;8.77;6.97;;;13.20;98.00;;;;;;5025226;28;20261;-59
2022/09/17 02:29:42;;;;;;;9.00;7.50;;;13.10;98.00;;;;;;4994109;28;20207;-59
2022/09/17 02:32:08;;;;;;;11.13;8.50;;;13.20;98.00;;;;;;5017734;28;20320;-59
2022/09/17 02:34:34;;;;;;;14.00;8.63;;;13.20;98.00;;;;;;4993209;28;20227;-59
2022/09/17 02:37:01;;;;;;;13.63;8.80;;;13.20;98.00;;;;;;5023353;28;20216;-59
2022/09/17 02:39:27;;;;;;;9.73;6.87;;;13.10;98.00;;;;;;5005118;28;20189;-59
2022/09/17 02:42:27;;;;;;;9.67;5.57;;;13.20;98.00;;;;;;5012095;28;20224;-59
2022/09/17 02:45:04;;;;;;;7.00;5.73;;;13.20;98.00;;;;;;4992726;28;20196;-59
2022/09/17 02:47:55;;;;;;;5.13;4.63;;;13.10;98.00;;;;;;5015767;28;20199;-59
2022/09/17 02:50:27;;;;;;;6.00;3.93;;;13.20;98.00;;;;;;5009380;28;20193;-59
2022/09/17 02:53:01;;;;;;;5.33;4.30;;;13.10;97.90;;;;;;5007116;28;20193;-59
2022/09/17 02:55:51;;;;;;;8.37;3.97;;;13.00;97.90;;;;;;5021772;28;20199;-59
2022/09/17 02:58:33;;;;;;;4.40;4.00;;;12.90;97.90;;;;;;5020221;28;20193;-59
2022/09/17 03:01:06;;;;;;;7.03;5.10;;;12.90;97.90;;;;;;4989667;28;20275;-59
2022/09/17 03:03:38;;;;;;;7.77;4.50;;;12.90;97.90;;;;;;4979984;28;20216;-59
2022/09/17 03:06:04;;;;;;;5.30;4.27;;;12.90;97.90;;;;;;4975347;28;20208;-59
2022/09/17 03:08:39;;;;;;;5.37;4.17;;;12.90;97.90;;;;;;4975856;28;20185;-59
2022/09/17 03:11:07;;;;;;;6.70;4.10;;;12.80;97.90;;;;;;5008797;28;20280;-59
2022/09/17 03:13:34;;;;;;;4.80;4.30;;;12.80;97.90;;;;;;5010305;28;20192;-59
2022/09/17 03:16:01;;;;;;;5.77;3.93;;;12.80;97.90;;;;;;5021260;28;20196;-59
2022/09/17 03:18:27;;;;;;;5.07;3.83;;;12.80;97.90;;;;;;4998998;28;20216;-59
2022/09/17 03:20:52;;;;;;;5.93;4.40;;;12.70;97.90;;;;;;5009957;28;20277;-59
2022/09/17 03:23:18;;;;;;;6.90;4.70;;;12.80;97.90;;;;;;5010936;28;20224;-59
2022/09/17 03:25:45;;;;;;;8.13;4.60;;;12.80;97.90;;;;;;5008723;28;20287;-59
2022/09/17 03:28:10;;;;;;;4.63;4.20;;;12.70;97.90;;;;;;4991374;28;20189;-59
2022/09/17 03:30:36;;;;;;;4.40;4.00;;;12.70;97.90;;;;;;5038204;28;20200;-59
2022/09/17 03:33:02;;;;;;;5.83;3.83;;;12.70;97.90;;;;;;4980649;28;20248;-59
2022/09/17 03:35:27;;;;;;;4.63;3.73;;;12.60;97.80;;;;;;4967170;28;20235;-59
2022/09/17 03:37:53;;;;;;;5.60;4.23;;;12.70;97.90;;;;;;4973781;28;20208;-59
2022/09/17 03:40:19;;;;;;;4.80;4.30;;;12.60;97.80;;;;;;5019650;28;20193;-59
2022/09/17 03:42:44;;;;;;;6.97;4.70;;;12.60;97.80;;;;;;5006774;28;20221;-59
2022/09/17 03:45:11;;;;;;;5.13;4.63;;;12.60;97.80;;;;;;5004493;28;20283;-59
2022/09/17 03:47:37;;;;;;;4.93;4.33;;;12.60;97.90;;;;;;5019730;28;20275;-59
2022/09/17 03:50:04;;;;;;;4.60;4.20;;;12.70;97.90;;;;;;4964574;28;20285;-59
2022/09/17 03:52:30;;;;;;;5.10;4.50;;;12.70;97.80;;;;;;5000385;28;20189;-59
2022/09/17 03:54:55;;;;;;;6.90;4.20;;;12.60;97.80;;;;;;5002768;28;20223;-59
2022/09/17 03:57:21;;;;;;;5.90;4.20;;;12.60;97.80;;;;;;4997001;28;20296;-59
2022/09/17 03:59:47;;;;;;;8.33;4.80;;;12.60;97.80;;;;;;5003340;28;20199;-59
2022/09/17 04:02:13;;;;;;;7.20;4.20;;;12.50;97.80;;;;;;5007170;28;20224;-59
2022/09/17 04:04:39;;;;;;;5.83;4.27;;;12.50;97.80;;;;;;4971355;28;20223;-59
2022/09/17 04:07:05;;;;;;;5.27;4.07;;;12.50;97.80;;;;;;4993627;28;20223;-59
2022/09/17 04:09:31;;;;;;;4.07;3.67;;;12.60;97.80;;;;;;4997713;28;20177;-60
2022/09/17 04:11:56;;;;;;;4.30;3.90;;;12.50;97.80;;;;;;5002137;28;20192;-60
2022/09/17 04:14:22;;;;;;;7.00;3.73;;;12.50;97.80;;;;;;5007887;28;20217;-59
2022/09/17 04:16:48;;;;;;;7.40;3.80;;;12.50;97.80;;;;;;5009517;28;20228;-60
2022/09/17 04:19:13;;;;;;;7.60;3.83;;;12.50;97.80;;;;;;5003000;28;20199;-60
2022/09/17 04:21:39;;;;;;;4.80;3.67;;;12.40;97.80;;;;;;5016425;28;20220;-60
2022/09/17 04:24:05;;;;;;;4.27;3.63;;;12.40;97.80;;;;;;4987399;28;20320;-60
2022/09/17 04:26:31;;;;;;;4.63;3.87;;;12.40;97.70;;;;;;4972349;28;20181;-60
2022/09/17 04:28:56;;;;;;;4.10;3.67;;;12.40;97.80;;;;;;4998983;28;20200;-60
2022/09/17 04:31:23;;;;;;;7.27;3.80;;;12.50;97.80;;;;;;5008268;28;20197;-60
2022/09/17 04:33:50;;;;;;;4.87;4.37;;;12.40;97.80;;;;;;4990445;28;20276;-60
2022/09/17 04:36:15;;;;;;;5.50;5.00;;;12.30;97.80;;;;;;4999276;28;20200;-60
2022/09/17 04:38:41;;;;;;;7.00;4.53;;;12.40;97.80;;;;;;4997589;28;20197;-60
2022/09/17 04:41:07;;;;;;;4.50;4.10;;;12.40;97.80;;;;;;4999082;28;20197;-60
2022/09/17 04:43:33;;;;;;;4.63;4.23;;;12.40;97.80;;;;;;5025832;28;21307;-60
2022/09/17 04:45:59;;;;;;;6.17;5.20;;;12.40;97.80;;;;;;5010017;28;20204;-60
2022/09/17 04:48:25;;;;;;;6.13;4.73;;;12.40;97.80;;;;;;4983163;28;20267;-59
2022/09/17 04:50:50;;;;;;;6.30;4.73;;;12.50;97.80;;;;;;5001941;28;20231;-59
2022/09/17 04:53:17;;;;;;;5.37;4.87;;;12.40;97.80;;;;;;5014258;28;20199;-59
2022/09/17 04:55:43;;;;;;;6.80;5.13;;;12.30;97.80;;;;;;5025571;28;20201;-60
2022/09/17 04:58:09;;;;;;;8.47;5.10;;;12.40;97.80;;;;;;4996529;28;20200;-61
2022/09/17 05:00:35;;;;;;;5.90;4.73;;;12.30;97.80;;;;;;5011252;28;20200;-60
2022/09/17 05:03:01;;;;;;;8.20;6.00;;;12.30;97.70;;;;;;5019879;28;20201;-60
2022/09/17 05:05:27;;;;;;;6.23;5.70;;;12.40;97.80;;;;;;5002255;28;20196;-61
2022/09/17 05:07:53;;;;;;;7.50;5.93;;;12.40;97.70;;;;;;5031300;28;20197;-60
2022/09/17 05:10:20;;;;;;;6.97;5.43;;;12.40;97.70;;;;;;4987407;28;20204;-60
2022/09/17 05:12:48;;;;;;;7.53;5.70;;;12.30;97.70;;;;;;5015375;28;20193;-60
2022/09/17 05:15:13;;;;;;;6.57;5.93;;;12.30;97.70;;;;;;5002013;28;20201;-60
2022/09/17 05:17:39;;;;;;;6.37;5.53;;;12.30;97.70;;;;;;5004441;28;20294;-61
2022/09/17 05:20:05;;;;;;;6.40;5.70;;;12.30;97.70;;;;;;4976389;28;20217;-60
2022/09/17 05:22:31;;;;;;;6.17;5.60;;;12.30;97.80;;;;;;5004491;28;20208;-59
2022/09/17 05:24:56;;;;;;;6.70;5.20;;;12.40;97.80;;;;;;5000025;28;20197;-60
2022/09/17 05:27:22;;;;;;;10.03;6.60;;;12.40;97.80;;;;;;4996122;28;20226;-60
2022/09/17 05:29:48;;;;;;;7.07;5.90;;;12.40;97.80;;;;;;5007867;28;20197;-60
2022/09/17 05:32:14;;;;;;;6.23;5.63;;;12.40;97.80;;;;;;4982088;28;20233;-61
2022/09/17 05:34:40;;;;;;;7.00;5.27;;;12.40;97.80;;;;;;5011341;28;20204;-59
2022/09/17 05:37:08;;;;;;;6.30;5.50;;;12.40;97.80;;;;;;4989849;28;20190;-60
2022/09/17 05:39:33;;;;;;;7.97;5.33;;;12.40;97.80;;;;;;5013942;28;20188;-60
2022/09/17 05:41:59;;;;;;;7.50;5.50;;;12.30;97.80;;;;;;4997782;28;20231;-59
2022/09/17 05:44:25;;;;;;;8.30;5.60;;;12.30;97.80;;;;;;5002043;28;20211;-59
2022/09/17 05:46:53;;;;;;;6.83;5.53;;;12.30;97.80;;;;;;5010431;28;20208;-60
2022/09/17 05:49:18;;;;;;;6.60;5.80;;;12.30;97.80;;;;;;4998377;28;20193;-60
2022/09/17 05:51:44;;;;;;;8.43;5.53;;;12.30;97.80;;;;;;5022180;28;20198;-60
2022/09/17 05:54:09;;;;;;;5.93;5.33;;;12.40;97.80;;;;;;4987284;28;20201;-60
2022/09/17 05:56:35;;;;;;;7.07;5.53;;;12.40;97.80;;;;;;4979628;28;20197;-61
2022/09/17 05:59:01;;;;;;;6.13;5.53;;;12.40;97.70;;;;;;5004349;28;20280;-61
2022/09/17 06:01:27;;;;;;;6.70;5.40;;;12.40;97.70;;;;;;5003313;28;20223;-60
2022/09/17 06:03:53;;;;;;;5.43;4.73;;;12.30;97.70;;;;;;4996190;28;20283;-60
2022/09/17 06:06:19;;;;;;;6.17;5.13;;;12.30;97.70;;;;;;4985629;28;20276;-60
2022/09/17 06:08:44;;;;;;;7.73;5.23;;;12.30;97.70;;;;;;5000639;28;20279;-60
2022/09/17 06:11:10;;;;;;;7.47;5.77;;;12.30;97.70;;;;;;5004753;28;20268;-60
2022/09/17 06:13:36;;;;;;;6.70;5.60;;;12.20;97.70;;;;;;4995114;28;20220;-60
2022/09/17 06:16:03;;;;;;;6.57;5.43;;;12.30;97.70;;;;;;5008597;28;20234;-60
2022/09/17 06:18:29;;;;;;;6.73;6.10;;;12.30;97.70;;;;;;5005723;28;20184;-60
2022/09/17 06:20:58;;;;;;;9.87;5.27;;;12.30;97.70;;;;;;4994318;28;20192;-59
2022/09/17 06:23:24;;;;;;;6.37;5.63;;;12.30;97.70;;;;;;5012819;28;20200;-60
2022/09/17 06:25:57;;;;;;;10.03;5.80;;;12.30;97.70;;;;;;4976490;28;20185;-59
2022/09/17 06:28:25;;;;;;;7.50;6.40;;;12.40;97.80;;;;;;4978254;28;20232;-61
2022/09/17 06:30:54;;;;;;;6.27;5.67;;;12.40;97.80;;;;;;4997030;28;20229;-59
2022/09/17 06:33:23;;;;;;;6.40;5.70;;;12.50;97.80;;;;;;4999577;28;20248;-60
2022/09/17 06:35:59;;;;;;;5.47;4.73;;;12.40;97.80;;;;;;4980513;28;20199;-60
2022/09/17 06:38:30;;;;;;;5.50;5.00;;;12.30;97.80;;;;;;4991777;28;20200;-60
2022/09/17 06:40:56;;;;;;;6.00;5.40;;;12.30;97.80;;;;;;4972213;28;20204;-59
2022/09/17 06:43:22;;;;;;;5.30;4.80;;;12.40;97.80;;;;;;5000434;28;20223;-59
2022/09/17 06:46:04;;;;;;;6.27;5.33;;;12.40;97.80;;;;;;4978758;28;20212;-60
2022/09/17 06:48:32;;;;;;;5.87;5.30;;;12.50;97.80;;;;;;4982457;28;20195;-59
2022/09/17 06:51:02;;;;;;;7.93;5.80;;;12.50;97.80;;;;;;4972844;28;20196;-60
2022/09/17 06:53:28;;;;;;;5.70;5.10;;;12.30;97.80;;;;;;5005214;28;20192;-60
2022/09/17 06:55:57;;;;;;;9.27;5.13;;;12.30;97.80;;;;;;5004868;28;20196;-60
2022/09/17 06:58:23;;;;;;;6.60;6.00;;;12.30;97.80;;;;;;4986206;28;20201;-61
2022/09/17 07:00:49;;;;;;;6.33;5.73;;;12.30;97.80;;;;;;4981560;28;20200;-60
2022/09/17 07:03:15;;;;;;;6.60;5.93;;;12.40;97.80;;;;;;5000249;28;20225;-61
2022/09/17 07:05:43;;;;;;;6.83;6.13;;;12.40;97.70;;;;;;5009030;28;20197;-60
2022/09/17 07:08:09;;;;;;;6.73;6.13;;;12.50;97.80;;;;;;4996916;28;20220;-61
2022/09/17 07:10:35;;;;;;;7.03;5.90;;;12.50;97.80;;;;;;4973890;28;20202;-60
2022/09/17 07:13:01;;;;;;;8.53;6.30;;;12.40;97.80;;;;;;4993721;28;20196;-60
2022/09/17 07:15:27;;;;;;;6.93;6.20;;;12.50;97.80;;;;;;4978620;28;20207;-60
2022/09/17 07:17:53;;;;;;;6.83;6.13;;;12.50;97.80;;;;;;4998512;28;20192;-60
2022/09/17 07:20:19;;;;;;;7.13;5.50;;;12.50;97.80;;;;;;5014336;28;20192;-61
2022/09/17 07:22:44;;;;;;;5.67;5.17;;;12.50;97.80;;;;;;4976455;28;20255;-60
2022/09/17 07:25:11;;;;;;;7.20;5.70;;;12.40;97.70;;;;;;5016970;28;20192;-60
2022/09/17 07:27:36;;;;;;;7.23;5.90;;;12.50;97.70;;;;;;5002828;28;20193;-61
2022/09/17 07:30:04;;;;;;;5.90;5.40;;;12.40;97.80;;;;;;4977881;28;20195;-61
2022/09/17 07:32:30;;;;;;;7.23;5.83;;;12.50;97.80;;;;;;4986631;28;20232;-62
2022/09/17 07:34:56;;;;;;;7.43;5.77;;;12.50;97.70;;;;;;4979466;28;20254;-61
2022/09/17 07:37:21;;;;;;;5.33;4.83;;;12.50;97.70;;;;;;4983606;28;20181;-61
2022/09/17 07:39:47;;;;;;;10.47;5.27;;;12.50;97.70;;;;;;4975207;28;20284;-61
2022/09/17 07:42:13;;;;;;;7.37;5.57;;;12.50;97.70;;;;;;4968763;28;20224;-60
2022/09/17 07:44:38;;;;;;;4.80;4.40;;;12.50;97.70;;;;;;5002376;28;20193;-61
2022/09/17 07:47:04;;;;;;;5.43;4.83;;;12.50;97.70;;;;;;4990124;28;20247;-60
2022/09/17 07:49:30;;;;;;;6.07;4.93;;;12.50;97.70;;;;;;5002104;28;20196;-60
2022/09/17 07:51:56;;;;;;;5.70;5.20;;;12.50;97.70;;;;;;5007097;28;20220;-61
2022/09/17 07:54:22;;;;;;;5.57;4.57;;;12.50;97.70;;;;;;4985103;28;20220;-61
2022/09/17 07:56:48;;;;;;;5.40;4.80;;;12.50;97.70;;;;;;4970348;28;20205;-61
2022/09/17 07:59:14;;;;;;;5.37;4.87;;;12.50;97.70;;;;;;4983420;28;20194;-61
2022/09/17 08:01:39;;;;;;;6.83;5.63;;;12.50;97.70;;;;;;5005693;28;20217;-61
2022/09/17 08:04:05;;;;;;;6.67;5.97;;;12.50;97.70;;;;;;4996965;28;20189;-61
2022/09/17 08:06:34;;;;;;;7.23;6.53;;;12.50;97.70;;;;;;5019117;28;20252;-61
2022/09/17 08:09:00;;;;;;;7.70;5.90;;;12.50;97.70;;;;;;5000959;28;20200;-61
2022/09/17 08:11:28;;;;;;;6.80;6.13;;;12.60;97.70;;;;;;5006854;28;20210;-61
2022/09/17 08:13:54;;;;;;;6.37;5.67;;;12.60;97.70;;;;;;4987642;28;20223;-61
2022/09/17 08:16:21;;;;;;;7.63;6.53;;;12.50;97.70;;;;;;5014500;28;20193;-61
2022/09/17 08:18:48;;;;;;;7.87;6.40;;;12.50;97.70;;;;;;4978535;28;20216;-61
2022/09/17 08:21:17;;;;;;;8.30;6.57;;;12.50;97.60;;;;;;4987109;28;20199;-61
2022/09/17 08:23:43;;;;;;;7.30;6.60;;;12.50;97.60;;;;;;4991906;28;20212;-61
2022/09/17 08:26:13;;;;;;;6.77;6.07;;;12.50;97.60;;;;;;4993142;28;20192;-61
2022/09/17 08:28:39;;;;;;;6.43;5.83;;;12.60;97.60;;;;;;4991669;28;20189;-61
2022/09/17 08:31:07;;;;;;;6.70;5.63;;;12.50;97.60;;;;;;5008158;28;20221;-61
2022/09/17 08:33:38;;;;;;;6.87;5.03;;;12.50;97.60;;;;;;4987161;28;20236;-59
2022/09/17 08:36:05;;;;;;;7.70;5.63;;;12.50;97.60;;;;;;5013464;28;20196;-59
2022/09/17 08:38:33;;;;;;;6.30;5.70;;;12.40;97.60;;;;;;4978199;28;20185;-59
2022/09/17 08:41:13;;;;;;;8.23;5.37;;;12.50;97.60;;;;;;5013061;28;20185;-60
2022/09/17 08:43:57;;;;;;;9.20;5.80;;;12.50;97.60;;;;;;5011096;28;20312;-61
2022/09/17 08:46:25;;;;;;;6.47;5.87;;;12.50;97.60;;;;;;5022840;28;20199;-61
2022/09/17 08:49:05;;;;;;;7.23;6.50;;;12.50;97.50;;;;;;5019996;28;20189;-61
2022/09/17 08:51:52;;;;;;;7.03;6.33;;;12.50;97.50;;;;;;5009085;28;20211;-60
2022/09/17 08:54:43;;;;;;;6.70;5.93;;;12.50;97.60;;;;;;5017305;28;20267;-60
2022/09/17 08:57:47;;;;;;;7.67;6.63;;;12.50;97.50;;;;;;4994626;28;20206;-61
2022/09/17 09:00:16;;;;;;;7.40;6.70;;;12.50;97.60;;;;;;5021286;28;20199;-59
2022/09/17 09:02:44;;;;;;;7.30;6.47;;;12.60;97.60;;;;;;4994326;28;20212;-61
2022/09/17 09:05:16;;;;;;;8.57;7.73;;;12.60;97.60;;;;;;5020272;28;20184;-60
2022/09/17 09:07:49;;;;;;;8.13;7.33;;;12.60;97.60;;;;;;4982696;28;20200;-61
2022/09/17 09:10:24;;;;;;;8.07;7.17;;;12.70;97.60;;;;;;4979807;28;20268;-61
2022/09/17 09:12:55;;;;;;;7.43;6.63;;;12.70;97.60;;;;;;5019722;28;20189;-61
2022/09/17 09:15:31;;;;;;;7.90;7.10;;;12.70;97.60;;;;;;5023682;28;20203;-61
2022/09/17 09:18:04;;;;;;;8.03;6.97;;;12.80;97.60;;;;;;4985529;28;20463;-61
2022/09/17 09:20:33;;;;;;;6.80;6.03;;;12.60;97.60;;;;;;5019020;28;20201;-61
2022/09/17 09:23:09;;;;;;;10.03;6.30;;;12.30;97.20;;;;;;4986222;28;20268;-61
2022/09/17 09:25:44;;;;;;;7.27;6.57;;;12.30;97.20;;;;;;5023991;28;20242;-62
2022/09/17 09:28:28;;;;;;;7.83;7.07;;;12.10;96.80;;;;;;5015668;28;20192;-61
2022/09/17 09:31:33;;;;;;;10.43;7.57;;;12.20;96.90;;;;;;4993395;28;20184;-61
2022/09/17 09:34:02;;;;;;;8.57;7.00;;;12.20;96.90;;;;;;4990743;28;20240;-61
2022/09/17 09:36:30;;;;;;;7.80;5.73;;;12.30;97.00;;;;;;4979506;28;20192;-60
2022/09/17 09:39:01;;;;;;;5.70;5.10;;;12.30;97.10;;;;;;4989100;28;20207;-62
2022/09/17 09:41:39;;;;;;;6.30;5.43;;;12.40;97.10;;;;;;4983431;28;20240;-61
2022/09/17 09:44:09;;;;;;;3.90;3.60;;;12.20;96.90;;;;;;4977743;28;20184;-60
2022/09/17 09:46:47;;;;;;;5.70;3.90;;;12.20;96.70;;;;;;4976841;28;20189;-59
2022/09/17 09:49:25;;;;;;;4.60;4.20;;;12.10;96.70;;;;;;4976718;28;20185;-60
2022/09/17 09:52:02;;;;;;;5.67;4.70;;;12.10;96.60;;;;;;4986102;28;20280;-60
2022/09/17 09:54:43;;;;;;;6.30;4.80;;;12.00;96.70;;;;;;4979505;28;20192;-60
2022/09/17 09:57:14;;;;;;;6.17;4.83;;;12.00;96.70;;;;;;4979169;28;20200;-61
2022/09/17 09:59:40;;;;;;;4.83;4.13;;;12.20;96.90;;;;;;4988893;28;20193;-61
2022/09/17 10:02:07;;;;;;;5.33;4.83;;;12.00;96.60;;;;;;4985693;28;20201;-62
2022/09/17 10:04:32;;;;;;;5.03;4.60;;;12.20;96.70;;;;;;5011113;28;20182;-61
2022/09/17 10:07:10;;;;;;;6.30;4.40;;;12.30;96.80;;;;;;4994390;28;20199;-61
2022/09/17 10:09:43;;;;;;;6.57;4.57;;;12.30;96.90;;;;;;4984560;28;20208;-61
2022/09/17 10:12:12;;;;;;;6.27;4.97;;;12.50;97.00;;;;;;4973715;28;20196;-61
2022/09/17 10:14:39;;;;;;;5.80;5.00;;;12.60;97.00;;;;;;5010231;28;20195;-61
2022/09/17 10:17:15;;;;;;;7.33;6.00;;;12.70;97.10;;;;;;5011806;28;20185;-61
2022/09/17 10:19:42;;;;;;;7.60;5.60;;;12.80;97.20;;;;;;5005201;28;20195;-61
2022/09/17 10:22:17;;;;;;;7.67;5.27;;;12.90;97.20;;;;;;4990759;28;20307;-60
2022/09/17 10:24:43;;;;;;;5.40;4.90;;;13.00;97.20;;;;;;5015623;28;20273;-61
2022/09/17 10:27:18;;;;;;;6.80;5.00;;;13.00;97.20;;;;;;5001236;28;20284;-61
2022/09/17 10:29:46;;;;;;;5.60;4.60;;;13.10;97.30;;;;;;4979189;28;20188;-61
2022/09/17 10:32:17;;;;;;;5.37;4.40;;;13.10;97.30;;;;;;4976296;28;20227;-61
2022/09/17 10:34:58;;;;;;;7.97;4.40;;;13.10;97.20;;;;;;5022331;28;20195;-59
2022/09/17 10:37:42;;;;;;;7.07;4.90;;;13.10;97.10;;;;;;5020889;28;20256;-60
2022/09/17 10:40:17;;;;;;;5.30;4.10;;;13.10;97.20;;;;;;4991097;28;20189;-61
2022/09/17 10:42:58;;;;;;;4.47;3.70;;;13.20;97.20;;;;;;5014727;28;20212;-61
2022/09/17 10:45:26;;;;;;;5.63;4.37;;;13.10;97.10;;;;;;4979313;28;20181;-61
2022/09/17 10:47:54;;;;;;;4.27;3.50;;;13.10;97.10;;;;;;4975592;28;20192;-59
2022/09/17 10:50:29;;;;;;;4.23;3.50;;;13.10;96.90;;;;;;4991833;28;20224;-60
2022/09/17 10:52:59;;;;;;;5.27;4.00;;;13.10;96.90;;;;;;5020791;28;20187;-60
2022/09/17 10:55:49;;;;;;;3.20;2.47;;;13.10;96.90;;;;;;4979989;28;20192;-59
2022/09/17 10:58:42;;;;;;;2.97;2.63;;;13.00;96.70;;;;;;5018225;28;20247;-60
2022/09/17 11:01:27;;;;;;;3.93;2.70;;;12.80;95.80;;;;;;5017020;28;20195;-60
2022/09/17 11:04:15;;;;;;;4.13;3.30;;;12.70;96.00;;;;;;4990224;28;20192;-60
2022/09/17 11:07:07;;;;;;;3.03;2.70;;;12.70;95.90;;;;;;4984601;28;20200;-60
2022/09/17 11:09:58;;;;;;;4.73;3.67;;;12.30;95.40;;;;;;4978410;28;20196;-60
2022/09/17 11:12:39;;;;;;;8.30;5.10;;;12.40;95.90;;;;;;4996077;28;20199;-60
2022/09/17 11:15:23;;;;;;;10.53;6.00;;;12.50;95.90;;;;;;4983669;28;20191;-60
2022/09/17 11:18:00;;;;;;;20.30;9.43;;;12.50;95.80;;;;;;4979340;28;20189;-60
2022/09/17 11:20:48;;;;;;;8.97;5.67;;;12.60;95.90;;;;;;5016177;28;20189;-60
2022/09/17 11:23:30;;;;;;;5.60;3.90;;;12.70;96.20;;;;;;5007935;28;20287;-60
2022/09/17 11:25:58;;;;;;;3.63;2.63;;;12.70;96.30;;;;;;4980698;28;20188;-60
2022/09/17 11:28:38;;;;;;;3.53;2.73;;;12.80;96.30;;;;;;4982757;28;20653;-61
2022/09/17 11:31:22;;;;;;;2.00;1.83;;;12.80;96.00;;;;;;4980881;28;20216;-61
2022/09/17 11:34:44;;;;;;;1.77;1.67;;;12.90;96.20;;;;;;5017924;28;20264;-61
2022/09/17 11:37:37;;;;;;;2.20;1.93;;;12.80;96.10;;;;;;4987657;28;20176;-61
2022/09/17 11:40:34;;;;;;;1.07;0.97;;;12.80;95.90;;;;;;4988828;28;20251;-62
2022/09/17 11:43:12;;;;;;;1.43;1.30;;;12.60;93.60;;;;;;4991695;28;20236;-62
2022/09/17 11:45:44;;;;;;;1.17;1.07;;;12.20;90.00;;;;;;4974771;28;20212;-61
2022/09/17 11:48:17;;;;;;;1.63;1.10;;;12.10;93.00;;;;;;4986658;28;20234;-61
2022/09/17 11:50:51;;;;;;;3.30;1.40;;;12.10;92.70;;;;;;4984739;28;20226;-62
2022/09/17 11:53:29;;;;;;;3.20;1.70;;;12.10;93.70;;;;;;4978712;28;20187;-62
2022/09/17 11:56:26;;;;;;;1.83;1.50;;;12.20;94.40;;;;;;5018156;28;20192;-61
2022/09/17 11:59:20;;;;;;;3.03;1.70;;;12.30;94.40;;;;;;4983789;28;20251;-62
2022/09/17 12:02:01;;;;;;;2.57;1.83;;;12.30;95.00;;;;;;5016202;28;20263;-62
2022/09/17 12:04:34;;;;;;;2.03;1.70;;;12.40;94.70;;;;;;4984206;28;20181;-62
2022/09/17 12:07:24;;;;;;;2.63;1.77;;;12.40;94.60;;;;;;4982107;28;20185;-62
2022/09/17 12:09:56;;;;;;;3.57;2.27;;;12.50;94.50;;;;;;4971009;28;20224;-62
2022/09/17 12:12:24;;;;;;;3.80;2.30;;;12.30;94.20;;;;;;4984980;28;20287;-61
2022/09/17 12:15:11;;;;;;;2.20;1.70;;;12.30;93.90;;;;;;4980430;28;20193;-62
2022/09/17 12:17:43;;;;;;;3.07;1.87;;;12.30;94.50;;;;;;5021256;28;20196;-61
2022/09/17 12:20:37;;;;;;;1.93;1.50;;;12.40;95.00;;;;;;5022832;28;20180;-62
2022/09/17 12:23:09;;;;;;;1.73;1.63;;;12.30;93.80;;;;;;4974109;28;20224;-61
2022/09/17 12:25:58;;;;;;;2.10;1.10;;;12.10;93.90;;;;;;4978661;28;20231;-62
2022/09/17 12:28:37;;;;;;;2.10;0.80;;;11.60;91.90;;;;;;4983472;28;20493;-61
2022/09/17 12:31:15;;;;;;;2.93;1.20;;;11.50;91.40;;;;;;4992666;28;20195;-61
2022/09/17 12:33:48;;;;;;;0.50;0.50;;;11.50;91.90;;;;;;5023402;28;20244;-61
2022/09/17 12:36:30;;;;;;;2.13;0.90;;;11.30;89.00;;;;;;5024763;28;20195;-61
2022/09/17 12:39:11;;;;;;;1.07;0.97;;;11.00;88.00;;;;;;4975522;28;20196;-62
2022/09/17 12:41:55;;;;;;;1.23;0.80;;;11.10;90.10;;;;;;5008062;28;20204;-61
2022/09/17 12:44:42;;;;;;;1.13;1.10;;;10.70;86.70;;;;;;5016684;28;20185;-61
2022/09/17 12:47:42;;;;;;;2.77;1.30;;;10.60;86.90;;;;;;5014858;28;20189;-61
2022/09/17 12:50:33;;;;;;;6.90;4.00;;;10.80;90.70;;;;;;5023345;28;20184;-61
2022/09/17 12:53:24;;;;;;;6.50;3.97;;;11.10;92.60;;;;;;5018982;28;20189;-61
2022/09/17 12:56:02;;;;;;;2.13;1.87;;;11.30;93.00;;;;;;4973857;28;20197;-61
2022/09/17 12:58:44;;;;;;;1.90;1.67;;;11.30;91.30;;;;;;5014395;28;20279;-61
2022/09/17 13:01:28;;;;;;;1.90;1.07;;;11.10;90.70;;;;;;4989109;28;20255;-61
2022/09/17 13:04:04;;;;;;;1.27;1.17;;;10.80;86.60;;;;;;5003482;28;20196;-61
2022/09/17 13:06:45;;;;;;;0.73;0.70;;;10.80;88.80;;;;;;4994671;28;20181;-61
2022/09/17 13:09:10;;;;;;;2.03;1.10;;;10.80;87.90;;;;;;5021787;28;20202;-62
2022/09/17 13:12:04;;;;;;;0.90;0.90;;;10.90;89.70;;;;;;5013610;28;20188;-61
2022/09/17 13:14:54;;;;;;;2.50;2.27;;;11.00;89.90;;;;;;4986705;28;20230;-61